Time;durP1;ratioP1;P1;durP2;ratioP2;P2;SDS_P1;SDS_P2;PMS_P1;PMS_P2;Temp;Humidity;BMP_temperature;BMP_pressure;BME280_temperature;BME280_humidity;BME280_pressure;Samples;Min_cycle;Max_cycle;Signal;HPM_P1;HPM_P2
2023/07/13 00:02:16;;;;;;;21.45;6.28;;;;;;;;;;4965955;29;20059;-87
2023/07/13 00:04:43;;;;;;;15.13;6.45;;;;;;;;;;4965765;29;20060;-87
2023/07/13 00:07:14;;;;;;;8.38;5.97;;;;;;;;;;4966869;28;20115;-87
2023/07/13 00:09:41;;;;;;;12.20;6.38;;;;;;;;;;4964544;29;20047;-87
2023/07/13 00:12:25;;;;;;;9.90;6.30;;;;;;;;;;4949263;29;20086;-87
2023/07/13 00:14:52;;;;;;;10.35;6.38;;;;;;;;;;4965779;29;20069;-88
2023/07/13 00:17:22;;;;;;;9.35;6.15;;;;;;;;;;4967185;29;20065;-86
2023/07/13 00:19:48;;;;;;;10.77;5.78;;;;;;;;;;4949653;29;20110;-87
2023/07/13 00:22:15;;;;;;;11.88;5.47;;;;;;;;;;4962787;29;20054;-87
2023/07/13 00:24:46;;;;;;;10.68;6.15;;;;;;;;;;4964586;29;20059;-86
2023/07/13 00:27:13;;;;;;;9.65;6.80;;;;;;;;;;4962631;28;20102;-86
2023/07/13 00:29:40;;;;;;;9.90;5.90;;;;;;;;;;4964033;29;20078;-87
2023/07/13 00:32:09;;;;;;;9.93;6.40;;;;;;;;;;4948249;29;20098;-87
2023/07/13 00:34:36;;;;;;;8.30;6.38;;;;;;;;;;4950623;29;20042;-87
2023/07/13 00:37:06;;;;;;;13.48;5.80;;;;;;;;;;4964007;29;20621;-87
2023/07/13 00:39:36;;;;;;;10.50;6.50;;;;;;;;;;4966421;29;20196;-87
2023/07/13 00:42:03;;;;;;;12.60;6.68;;;;;;;;;;4950901;29;20076;-86
2023/07/13 00:44:30;;;;;;;10.05;5.55;;;;;;;;;;4965048;29;20047;-86
2023/07/13 00:46:58;;;;;;;11.88;6.35;;;;;;;;;;4966208;28;20119;-86
2023/07/13 00:49:27;;;;;;;18.15;6.97;;;;;;;;;;4966751;29;20051;-87
2023/07/13 00:51:56;;;;;;;11.55;6.15;;;;;;;;;;4949851;29;20616;-87
2023/07/13 00:54:36;;;;;;;15.45;6.75;;;;;;;;;;4966656;29;20051;-87
2023/07/13 00:57:05;;;;;;;17.10;6.88;;;;;;;;;;4965393;28;20055;-86
2023/07/13 00:59:33;;;;;;;11.48;6.43;;;;;;;;;;4965024;29;20069;-86
2023/07/13 01:02:00;;;;;;;11.68;6.57;;;;;;;;;;4964540;28;20149;-86
2023/07/13 01:04:28;;;;;;;14.05;6.38;;;;;;;;;;4964877;29;20055;-86
2023/07/13 01:07:01;;;;;;;11.50;6.78;;;;;;;;;;4966546;29;20055;-86
2023/07/13 01:09:28;;;;;;;10.23;6.50;;;;;;;;;;4964891;29;20138;-86
2023/07/13 01:11:58;;;;;;;14.25;6.70;;;;;;;;;;4952355;29;20051;-87
2023/07/13 01:14:25;;;;;;;12.45;6.90;;;;;;;;;;4968468;28;20051;-87
2023/07/13 01:16:55;;;;;;;11.05;7.10;;;;;;;;;;4966791;29;20074;-86
2023/07/13 01:19:39;;;;;;;10.82;7.25;;;;;;;;;;4965070;29;20051;-86
2023/07/13 01:22:13;;;;;;;17.85;8.02;;;;;;;;;;4973326;28;20067;-87
2023/07/13 01:24:42;;;;;;;21.80;7.20;;;;;;;;;;4966421;29;20149;-87
2023/07/13 01:27:11;;;;;;;24.95;8.23;;;;;;;;;;4962856;29;20059;-87
2023/07/13 01:29:42;;;;;;;14.23;7.90;;;;;;;;;;4967931;28;20066;-85
2023/07/13 01:32:12;;;;;;;11.68;7.60;;;;;;;;;;4965286;29;20079;-87
2023/07/13 01:34:42;;;;;;;12.98;7.18;;;;;;;;;;4963332;29;20416;-86
2023/07/13 01:37:09;;;;;;;11.73;6.43;;;;;;;;;;4945889;29;20074;-86
2023/07/13 01:39:37;;;;;;;16.73;7.30;;;;;;;;;;4963465;29;20063;-86
2023/07/13 01:42:04;;;;;;;10.55;6.32;;;;;;;;;;4965737;29;20082;-87
2023/07/13 01:44:32;;;;;;;14.95;6.57;;;;;;;;;;4962267;29;20047;-86
2023/07/13 01:47:00;;;;;;;9.93;6.05;;;;;;;;;;4962512;29;20047;-86
2023/07/13 01:49:29;;;;;;;17.45;6.68;;;;;;;;;;4962838;29;20193;-86
2023/07/13 01:51:56;;;;;;;11.63;7.18;;;;;;;;;;4963061;29;20189;-86
2023/07/13 01:54:25;;;;;;;11.07;6.28;;;;;;;;;;4965304;29;20047;-86
2023/07/13 01:56:52;;;;;;;13.43;6.60;;;;;;;;;;4966647;28;20111;-86
2023/07/13 01:59:22;;;;;;;18.52;7.13;;;;;;;;;;4965962;29;20062;-86
2023/07/13 02:01:55;;;;;;;13.07;7.68;;;;;;;;;;4967539;29;20066;-86
2023/07/13 02:04:22;;;;;;;15.40;7.85;;;;;;;;;;4965879;29;20126;-86
2023/07/13 02:06:49;;;;;;;14.90;8.40;;;;;;;;;;4964779;28;20138;-86
2023/07/13 02:09:16;;;;;;;15.65;8.85;;;;;;;;;;4963689;29;20055;-86
2023/07/13 02:11:42;;;;;;;22.75;7.93;;;;;;;;;;4964552;29;20054;-86
2023/07/13 02:14:09;;;;;;;16.17;8.93;;;;;;;;;;4963235;29;20047;-86
2023/07/13 02:16:36;;;;;;;21.77;9.13;;;;;;;;;;4963386;29;20055;-86
2023/07/13 02:19:03;;;;;;;12.98;7.93;;;;;;;;;;4962668;29;20161;-86
2023/07/13 02:21:30;;;;;;;15.38;8.02;;;;;;;;;;4962805;29;20058;-86
2023/07/13 02:23:57;;;;;;;18.70;8.80;;;;;;;;;;4963416;29;20355;-86
2023/07/13 02:26:25;;;;;;;22.13;8.50;;;;;;;;;;4964111;28;20059;-86
2023/07/13 02:28:52;;;;;;;13.00;7.82;;;;;;;;;;4964366;29;20074;-86
2023/07/13 02:31:18;;;;;;;16.42;8.57;;;;;;;;;;4962819;29;20114;-87
2023/07/13 02:33:45;;;;;;;13.98;7.57;;;;;;;;;;4963471;29;20051;-86
2023/07/13 02:36:12;;;;;;;24.75;8.68;;;;;;;;;;4963254;29;20079;-87
2023/07/13 02:38:39;;;;;;;16.08;9.48;;;;;;;;;;4964620;29;20066;-87
2023/07/13 02:41:07;;;;;;;17.40;8.15;;;;;;;;;;4964991;28;20154;-86
2023/07/13 02:43:34;;;;;;;35.47;9.15;;;;;;;;;;4965280;29;20146;-86
2023/07/13 02:46:06;;;;;;;16.30;8.57;;;;;;;;;;4964328;29;20161;-86
2023/07/13 02:48:35;;;;;;;14.75;8.57;;;;;;;;;;4964068;29;20062;-87
2023/07/13 02:51:02;;;;;;;17.70;8.10;;;;;;;;;;4961274;29;20086;-87
2023/07/13 02:53:29;;;;;;;14.85;8.40;;;;;;;;;;4963506;29;20051;-86
2023/07/13 02:55:57;;;;;;;13.60;6.80;;;;;;;;;;4948230;29;20051;-86
2023/07/13 02:58:24;;;;;;;19.60;7.82;;;;;;;;;;4963851;29;20035;-86
2023/07/13 03:00:53;;;;;;;17.55;7.30;;;;;;;;;;4964296;29;20055;-86
2023/07/13 03:03:21;;;;;;;16.48;8.15;;;;;;;;;;4966456;29;20047;-86
2023/07/13 03:05:49;;;;;;;15.57;6.75;;;;;;;;;;4964356;29;20162;-86
2023/07/13 03:08:26;;;;;;;17.10;6.85;;;;;;;;;;4960525;29;20048;-86
2023/07/13 03:11:03;;;;;;;25.85;7.65;;;;;;;;;;4947058;29;20149;-86
2023/07/13 03:13:34;;;;;;;12.63;6.53;;;;;;;;;;4968516;28;20055;-86
2023/07/13 03:16:01;;;;;;;12.85;6.57;;;;;;;;;;4946538;29;20061;-87
2023/07/13 03:18:28;;;;;;;16.80;6.43;;;;;;;;;;4959378;28;20062;-87
2023/07/13 03:20:54;;;;;;;14.60;5.35;;;;;;;;;;4963062;29;20061;-87
2023/07/13 03:23:24;;;;;;;14.07;5.35;;;;;;;;;;4961960;29;20051;-86
2023/07/13 03:26:08;;;;;;;12.57;5.70;;;;;;;;;;4964276;29;20070;-87
2023/07/13 03:28:36;;;;;;;20.85;5.32;;;;;;;;;;4964425;29;20043;-86
2023/07/13 03:31:04;;;;;;;13.63;4.68;;;;;;;;;;4967950;29;20051;-87
2023/07/13 03:33:45;;;;;;;8.20;4.50;;;;;;;;;;4972983;29;20115;-87
2023/07/13 03:36:28;;;;;;;14.02;4.93;;;;;;;;;;4973805;28;20051;-85
2023/07/13 03:39:13;;;;;;;14.70;4.95;;;;;;;;;;4974410;29;20090;-87
2023/07/13 03:41:54;;;;;;;10.75;4.72;;;;;;;;;;4976436;28;20075;-88
2023/07/13 03:44:41;;;;;;;16.95;4.68;;;;;;;;;;4960790;29;20115;-87
2023/07/13 03:47:21;;;;;;;15.05;4.40;;;;;;;;;;4978142;28;20115;-88
2023/07/13 03:50:08;;;;;;;18.30;4.05;;;;;;;;;;4978193;28;20051;-87
2023/07/13 03:52:48;;;;;;;17.40;3.60;;;;;;;;;;4977111;28;20055;-87
2023/07/13 03:55:26;;;;;;;18.73;4.60;;;;;;;;;;4980763;28;20036;-88
2023/07/13 03:58:26;;;;;;;12.27;3.97;;;;;;;;;;4946040;29;20052;-87
2023/07/13 04:01:07;;;;;;;9.00;3.28;;;;;;;;;;4974650;29;20051;-87
2023/07/13 04:03:48;;;;;;;9.75;3.53;;;;;;;;;;4973873;28;20051;-88
2023/07/13 04:06:41;;;;;;;12.88;3.85;;;;;;;;;;4978057;29;20094;-88
2023/07/13 04:09:14;;;;;;;15.68;3.78;;;;;;;;;;4977866;28;20043;-88
2023/07/13 04:12:01;;;;;;;14.48;3.25;;;;;;;;;;4973057;28;20042;-89
2023/07/13 04:14:32;;;;;;;9.38;3.10;;;;;;;;;;4975881;28;20059;-87
2023/07/13 04:17:01;;;;;;;13.57;3.55;;;;;;;;;;4962389;28;20051;-87
2023/07/13 04:19:43;;;;;;;9.60;3.15;;;;;;;;;;4962976;29;20047;-88
2023/07/13 04:22:31;;;;;;;11.32;2.67;;;;;;;;;;4974890;28;20059;-87
2023/07/13 04:25:11;;;;;;;18.00;2.75;;;;;;;;;;4976911;28;20106;-87
2023/07/13 04:27:44;;;;;;;10.02;3.45;;;;;;;;;;4975238;29;20416;-88
2023/07/13 04:30:26;;;;;;;7.93;2.70;;;;;;;;;;4975669;28;20074;-87
2023/07/13 04:33:08;;;;;;;13.82;2.92;;;;;;;;;;4960419;28;20054;-88
2023/07/13 04:36:26;;;;;;;12.43;3.15;;;;;;;;;;5153395;27;20160;-87
2023/07/13 04:39:06;;;;;;;12.27;3.03;;;;;;;;;;5132918;28;20059;-87
2023/07/13 04:41:47;;;;;;;11.75;2.67;;;;;;;;;;5105105;28;20032;-86
2023/07/13 04:44:27;;;;;;;16.10;2.67;;;;;;;;;;5130220;28;20078;-87
2023/07/13 04:47:31;;;;;;;11.13;2.50;;;;;;;;;;5115470;28;20123;-87
2023/07/13 04:50:18;;;;;;;18.90;3.30;;;;;;;;;;5114644;28;20074;-88
2023/07/13 04:52:59;;;;;;;15.98;3.10;;;;;;;;;;5132413;28;20074;-88
2023/07/13 04:55:40;;;;;;;15.20;2.20;;;;;;;;;;5116560;28;20066;-88
2023/07/13 04:58:31;;;;;;;16.52;2.83;;;;;;;;;;5113530;28;20031;-88
2023/07/13 05:01:15;;;;;;;13.40;2.67;;;;;;;;;;5191579;22;20143;-86
2023/07/13 05:03:57;;;;;;;10.88;2.55;;;;;;;;;;5114598;28;20078;-86
2023/07/13 05:07:18;;;;;;;12.75;2.30;;;;;;;;;;5115820;28;20026;-88
2023/07/13 05:09:59;;;;;;;13.63;2.15;;;;;;;;;;5131070;28;20032;-89
2023/07/13 05:12:41;;;;;;;17.48;2.90;;;;;;;;;;5130926;28;20066;-87
2023/07/13 05:15:23;;;;;;;9.38;2.28;;;;;;;;;;5106608;28;20039;-86
2023/07/13 05:18:03;;;;;;;7.38;2.03;;;;;;;;;;5113577;28;20047;-87
2023/07/13 05:21:22;;;;;;;18.75;2.75;;;;;;;;;;5112678;28;20242;-88
2023/07/13 05:24:04;;;;;;;10.02;2.10;;;;;;;;;;5160980;22;20090;-87
2023/07/13 05:26:46;;;;;;;13.07;2.10;;;;;;;;;;5134432;28;20031;-86
2023/07/13 05:29:34;;;;;;;10.85;2.15;;;;;;;;;;5148257;27;20051;-89
2023/07/13 05:32:14;;;;;;;15.00;2.00;;;;;;;;;;5132351;28;20051;-88
2023/07/13 05:34:57;;;;;;;17.45;2.75;;;;;;;;;;5144740;28;20043;-88
2023/07/13 05:37:37;;;;;;;19.98;2.42;;;;;;;;;;5127553;28;20055;-88
2023/07/13 05:40:18;;;;;;;9.68;1.85;;;;;;;;;;5133706;28;20031;-88
2023/07/13 05:43:02;;;;;;;15.68;2.60;;;;;;;;;;5132977;27;20043;-88
2023/07/13 05:49:05;;;;;;;10.93;2.28;;;;;;;;;;5138071;27;20174;-87
2023/07/13 05:51:46;;;;;;;12.02;2.65;;;;;;;;;;5121205;27;20027;-87
2023/07/13 05:54:30;;;;;;;10.95;2.28;;;;;;;;;;5121414;27;20080;-89
2023/07/13 05:57:11;;;;;;;7.78;1.80;;;;;;;;;;5120006;28;20037;-88
2023/07/13 06:00:04;;;;;;;12.32;2.78;;;;;;;;;;5118726;27;20047;-88
2023/07/13 06:02:58;;;;;;;8.38;1.70;;;;;;;;;;5136652;27;20031;-87
2023/07/13 06:05:44;;;;;;;9.52;1.70;;;;;;;;;;5136507;27;20092;-88
2023/07/13 06:08:28;;;;;;;11.88;2.80;;;;;;;;;;5136242;27;20051;-89
2023/07/13 06:11:22;;;;;;;10.82;2.00;;;;;;;;;;5135509;27;20042;-89
2023/07/13 06:14:04;;;;;;;12.20;2.70;;;;;;;;;;5118128;28;20051;-89
2023/07/13 06:16:46;;;;;;;10.98;2.05;;;;;;;;;;5134746;28;20040;-87
2023/07/13 06:19:37;;;;;;;12.77;2.03;;;;;;;;;;5132560;28;20039;-89
2023/07/13 06:22:22;;;;;;;10.80;2.10;;;;;;;;;;5119284;28;20122;-88
2023/07/13 06:25:23;;;;;;;12.23;2.30;;;;;;;;;;5114742;28;20082;-89
2023/07/13 06:28:04;;;;;;;12.82;1.90;;;;;;;;;;5115279;28;20043;-88
2023/07/13 06:30:48;;;;;;;7.63;2.10;;;;;;;;;;5114255;28;20051;-89
2023/07/13 06:33:33;;;;;;;9.52;1.83;;;;;;;;;;5114856;28;20064;-87
2023/07/13 06:36:15;;;;;;;8.52;1.85;;;;;;;;;;5224038;22;21435;-89
2023/07/13 06:38:56;;;;;;;14.48;2.40;;;;;;;;;;5115013;28;20058;-88
2023/07/13 06:41:43;;;;;;;9.27;2.30;;;;;;;;;;5119304;28;20035;-88
2023/07/13 06:44:26;;;;;;;8.65;1.27;;;;;;;;;;5381722;22;20024;-88
2023/07/13 06:47:07;;;;;;;15.35;2.20;;;;;;;;;;5098654;28;20123;-87
2023/07/13 06:50:13;;;;;;;12.65;2.45;;;;;;;;;;5099710;28;20024;-91
2023/07/13 06:53:06;;;;;;;8.80;1.55;;;;;;;;;;5116627;28;20105;-88
2023/07/13 06:55:49;;;;;;;14.95;3.17;;;;;;;;;;5532256;22;20035;-90
2023/07/13 06:58:34;;;;;;;14.30;2.80;;;;;;;;;;5139869;22;20152;-89
2023/07/13 07:01:22;;;;;;;10.07;2.25;;;;;;;;;;5115408;28;20039;-88
2023/07/13 07:07:07;;;;;;;12.27;2.00;;;;;;;;;;5217513;22;20101;-88
2023/07/13 07:09:47;;;;;;;13.70;2.33;;;;;;;;;;5097409;28;20032;-87
2023/07/13 07:12:40;;;;;;;7.85;1.83;;;;;;;;;;5098862;28;20032;-88
2023/07/13 07:15:23;;;;;;;8.18;2.20;;;;;;;;;;5096296;28;20202;-89
2023/07/13 07:18:10;;;;;;;10.10;2.00;;;;;;;;;;5098761;28;20051;-88
2023/07/13 07:20:52;;;;;;;10.98;1.75;;;;;;;;;;5097508;28;20140;-88
2023/07/13 07:23:44;;;;;;;6.65;1.73;;;;;;;;;;5209803;22;20072;-89
2023/07/13 07:26:39;;;;;;;11.43;2.05;;;;;;;;;;5073150;28;20045;-88
2023/07/13 07:29:29;;;;;;;12.95;1.98;;;;;;;;;;5073533;28;20072;-89
2023/07/13 07:32:15;;;;;;;9.07;2.20;;;;;;;;;;5071826;28;20029;-89
2023/07/13 07:35:03;;;;;;;10.65;2.40;;;;;;;;;;5074766;28;20025;-87
2023/07/13 07:37:44;;;;;;;8.77;1.95;;;;;;;;;;5073216;28;20051;-88
2023/07/13 07:40:54;;;;;;;8.60;2.20;;;;;;;;;;5074246;28;20044;-89
2023/07/13 07:43:41;;;;;;;9.73;1.98;;;;;;;;;;5074563;28;20025;-89
2023/07/13 07:46:26;;;;;;;7.82;1.70;;;;;;;;;;5073486;28;20080;-88
2023/07/13 07:49:10;;;;;;;11.77;1.90;;;;;;;;;;5069817;28;20037;-90
2023/07/13 07:51:57;;;;;;;8.40;2.00;;;;;;;;;;5300625;22;20059;-89
2023/07/13 07:54:44;;;;;;;7.75;1.48;;;;;;;;;;5480229;22;20034;-89
2023/07/13 07:57:28;;;;;;;12.48;1.80;;;;;;;;;;5072728;28;20464;-89
2023/07/13 08:00:16;;;;;;;10.18;2.30;;;;;;;;;;5238008;22;20057;-90
2023/07/13 08:02:57;;;;;;;7.13;1.90;;;;;;;;;;5059822;28;20099;-89
2023/07/13 08:10:58;;;;;;;9.27;1.60;;;;;;;;;;5613130;22;20037;31
2023/07/13 08:16:23;;;;;;;6.53;2.17;;;;;;;;;;5682531;22;20056;-89
2023/07/13 08:33:19;;;;;;;6.50;2.13;;;;;;;;;;5054359;26;20033;-90
2023/07/13 08:39:04;;;;;;;7.85;1.98;;;;;;;;;;5447738;22;20037;-89
2023/07/13 08:44:52;;;;;;;7.25;1.65;;;;;;;;;;5168868;22;20109;-90
2023/07/13 08:50:58;;;;;;;6.57;1.80;;;;;;;;;;5108908;22;20038;-90
2023/07/13 08:53:42;;;;;;;14.20;3.40;;;;;;;;;;5026063;22;20053;-88
2023/07/13 08:56:32;;;;;;;7.43;1.85;;;;;;;;;;4995756;28;20062;-90
2023/07/13 08:59:25;;;;;;;11.32;2.33;;;;;;;;;;4995685;28;20051;-90
2023/07/13 09:02:06;;;;;;;8.68;1.70;;;;;;;;;;5306399;23;20065;-89
2023/07/13 09:04:54;;;;;;;6.78;1.42;;;;;;;;;;5057742;28;20055;-88
2023/07/13 09:07:55;;;;;;;7.15;1.50;;;;;;;;;;5180374;22;20038;-90
2023/07/13 09:10:48;;;;;;;9.70;1.50;;;;;;;;;;5033530;28;20034;-89
2023/07/13 09:16:04;;;;;;;7.03;1.67;;;;;;;;;;6093622;22;20016;-89
2023/07/13 09:18:49;;;;;;;7.28;1.70;;;;;;;;;;5264653;23;20109;-89
2023/07/13 09:21:36;;;;;;;6.37;1.40;;;;;;;;;;5015326;28;20057;-90
2023/07/13 09:24:36;;;;;;;6.22;1.20;;;;;;;;;;5017557;28;20487;-90
2023/07/13 09:27:28;;;;;;;10.40;1.65;;;;;;;;;;5040815;23;20042;-89
2023/07/13 09:30:16;;;;;;;4.63;1.38;;;;;;;;;;5017215;28;20037;-90
2023/07/13 09:33:16;;;;;;;6.03;1.58;;;;;;;;;;5018486;28;20102;-90
2023/07/13 09:36:17;;;;;;;5.32;1.45;;;;;;;;;;5234972;22;20028;-88
2023/07/13 09:39:18;;;;;;;8.07;1.45;;;;;;;;;;5041568;28;20079;-92
2023/07/13 09:42:15;;;;;;;3.63;1.20;;;;;;;;;;5054813;28;20233;-88
2023/07/13 09:47:42;;;;;;;4.65;1.38;;;;;;;;;;5511256;22;20032;-88
2023/07/13 09:56:26;;;;;;;5.10;1.20;;;;;;;;;;5055192;28;20037;-90
2023/07/13 09:59:34;;;;;;;3.88;1.02;;;;;;;;;;5042380;28;20040;-90
2023/07/13 10:11:26;;;;;;;6.55;1.10;;;;;;;;;;5646434;23;20036;-91
2023/07/13 10:23:19;;;;;;;7.22;1.30;;;;;;;;;;5201727;23;20066;-89
2023/07/13 10:26:11;;;;;;;8.15;1.70;;;;;;;;;;4945155;28;20047;-90
2023/07/13 10:36:58;;;;;;;4.45;1.23;;;;;;;;;;4990440;23;20051;-90
2023/07/13 10:45:26;;;;;;;4.80;1.10;;;;;;;;;;5584128;23;20071;-90
2023/07/13 11:10:53;;;;;;;10.68;1.67;;;;;;;;;;4944262;23;20063;-90
2023/07/13 11:58:13;;;;;;;3.80;1.35;;;;;;;;;;5590758;23;20043;-89
2023/07/13 12:01:18;;;;;;;1.70;0.97;;;;;;;;;;5762067;23;20036;-86
2023/07/13 12:04:06;;;;;;;1.02;0.90;;;;;;;;;;5379917;23;20054;-89
2023/07/13 12:12:03;;;;;;;5.33;1.77;;;;;;;;;;5762766;23;20030;-89
2023/07/13 12:14:43;;;;;;;2.25;1.23;;;;;;;;;;5593708;23;20129;-88
2023/07/13 12:17:27;;;;;;;4.97;1.70;;;;;;;;;;4935964;29;20070;-89
2023/07/13 12:20:20;;;;;;;4.38;1.50;;;;;;;;;;4934890;29;20051;-88
2023/07/13 12:23:02;;;;;;;1.45;1.20;;;;;;;;;;4934613;29;20046;-87
2023/07/13 12:25:59;;;;;;;1.88;1.20;;;;;;;;;;4933637;29;20075;-89
2023/07/13 12:28:46;;;;;;;2.58;1.15;;;;;;;;;;4932323;29;20044;-87
2023/07/13 12:31:49;;;;;;;3.33;1.25;;;;;;;;;;4933493;29;20127;-88
2023/07/13 12:34:30;;;;;;;3.70;1.27;;;;;;;;;;4926191;29;20048;-87
2023/07/13 12:37:20;;;;;;;1.73;1.30;;;;;;;;;;4930241;29;20289;-88
2023/07/13 12:40:10;;;;;;;6.00;1.17;;;;;;;;;;4928683;29;20024;-88
2023/07/13 12:42:52;;;;;;;3.22;1.58;;;;;;;;;;4928971;29;20099;-88
2023/07/13 12:45:35;;;;;;;5.40;1.38;;;;;;;;;;4913001;29;20337;-88
2023/07/13 12:48:16;;;;;;;1.45;1.10;;;;;;;;;;4931003;23;20139;-87
2023/07/13 12:51:08;;;;;;;3.38;1.05;;;;;;;;;;4909993;29;20040;-88
2023/07/13 12:54:09;;;;;;;1.35;1.10;;;;;;;;;;4913678;29;20044;-88
2023/07/13 12:56:52;;;;;;;1.20;0.90;;;;;;;;;;4917025;29;20087;-88
2023/07/13 13:03:14;;;;;;;1.08;0.85;;;;;;;;;;4915195;29;20031;-87
2023/07/13 13:06:07;;;;;;;2.25;1.20;;;;;;;;;;4917405;29;20059;-88
2023/07/13 13:09:13;;;;;;;1.92;1.17;;;;;;;;;;4913339;29;20084;-87
2023/07/13 13:11:54;;;;;;;1.45;0.98;;;;;;;;;;4926059;29;20128;-88
2023/07/13 13:14:37;;;;;;;2.65;1.10;;;;;;;;;;4926241;29;20055;-87
2023/07/13 13:19:57;;;;;;;2.25;1.10;;;;;;;;;;4987940;23;20056;-89
2023/07/13 13:22:40;;;;;;;2.20;1.03;;;;;;;;;;4922033;29;20052;-89
2023/07/13 13:25:37;;;;;;;2.90;1.10;;;;;;;;;;4937852;29;20124;-86
2023/07/13 13:28:19;;;;;;;3.33;1.00;;;;;;;;;;4922666;29;20193;-88
2023/07/13 13:31:06;;;;;;;1.15;0.80;;;;;;;;;;4934130;29;20177;-88
2023/07/13 13:33:50;;;;;;;1.75;0.68;;;;;;;;;;4919285;29;20207;-86
2023/07/13 13:36:33;;;;;;;2.10;1.05;;;;;;;;;;4933840;29;20102;-88
2023/07/13 13:39:22;;;;;;;1.40;0.80;;;;;;;;;;4985554;23;20088;-90
2023/07/13 13:42:05;;;;;;;1.85;0.80;;;;;;;;;;4934413;29;20048;-87
2023/07/13 13:44:46;;;;;;;2.15;1.02;;;;;;;;;;4921308;29;20036;-88
2023/07/13 13:47:31;;;;;;;2.30;1.00;;;;;;;;;;4933624;29;20040;-86
2023/07/13 13:50:11;;;;;;;2.63;1.05;;;;;;;;;;4934321;29;20187;-87
2023/07/13 13:52:55;;;;;;;2.13;0.95;;;;;;;;;;4935370;29;20073;-87
2023/07/13 13:55:36;;;;;;;2.03;1.15;;;;;;;;;;4935483;29;20040;-87
2023/07/13 13:58:16;;;;;;;1.45;0.80;;;;;;;;;;4921090;29;20050;-87
2023/07/13 14:01:08;;;;;;;2.83;1.00;;;;;;;;;;4936018;29;20063;-90
2023/07/13 14:03:51;;;;;;;2.40;1.20;;;;;;;;;;4936998;29;20064;-88
2023/07/13 14:06:33;;;;;;;2.75;1.10;;;;;;;;;;4922389;29;20051;-89
2023/07/13 14:09:19;;;;;;;1.02;0.93;;;;;;;;;;4861937;29;20083;-88
2023/07/13 14:12:01;;;;;;;2.03;0.90;;;;;;;;;;4859319;29;20053;-90
2023/07/13 14:14:45;;;;;;;1.67;0.80;;;;;;;;;;4858216;29;20578;-89
2023/07/13 14:17:26;;;;;;;7.68;0.98;;;;;;;;;;4858468;29;20093;-88
2023/07/13 14:20:23;;;;;;;4.97;1.23;;;;;;;;;;4858218;29;20229;-90
2023/07/13 14:23:10;;;;;;;2.00;1.10;;;;;;;;;;4844716;29;20042;-88
2023/07/13 14:25:51;;;;;;;2.88;1.27;;;;;;;;;;4858812;29;20041;-88
2023/07/13 14:28:39;;;;;;;4.45;1.38;;;;;;;;;;4857737;29;20056;-88
2023/07/13 14:31:23;;;;;;;1.98;1.00;;;;;;;;;;4858487;29;20042;-89
2023/07/13 14:34:04;;;;;;;2.78;1.33;;;;;;;;;;4858127;29;20050;-88
2023/07/13 14:36:49;;;;;;;2.45;0.93;;;;;;;;;;4859021;29;20222;-89
2023/07/13 14:39:30;;;;;;;2.20;1.40;;;;;;;;;;4858897;29;20086;-87
2023/07/13 14:42:11;;;;;;;2.60;1.23;;;;;;;;;;4986216;23;20067;-87
2023/07/13 14:44:54;;;;;;;1.58;1.13;;;;;;;;;;4937393;29;20068;-88
2023/07/13 14:47:35;;;;;;;2.60;1.30;;;;;;;;;;4935173;29;20040;-89
2023/07/13 14:50:20;;;;;;;3.60;1.23;;;;;;;;;;5115187;23;20221;-89
2023/07/13 14:53:10;;;;;;;4.63;1.52;;;;;;;;;;5010787;23;20094;-89
2023/07/13 14:55:51;;;;;;;4.32;1.70;;;;;;;;;;4936098;29;20088;-88
2023/07/13 14:58:33;;;;;;;4.55;1.65;;;;;;;;;;5025879;23;20027;-87
2023/07/13 15:01:15;;;;;;;3.75;1.35;;;;;;;;;;4936630;29;20080;-89
2023/07/13 15:03:57;;;;;;;3.25;1.77;;;;;;;;;;4936479;29;20039;-89
2023/07/13 15:14:38;;;;;;;2.35;0.70;;;;;;;;;;5549562;23;20115;-88
2023/07/13 15:17:32;;;;;;;3.45;1.13;;;;;;;;;;4946709;23;20048;-89
2023/07/13 15:20:12;;;;;;;4.40;1.05;;;;;;;;;;4923737;28;20055;-86
2023/07/13 15:22:56;;;;;;;2.85;1.38;;;;;;;;;;4938818;28;20056;-89
2023/07/13 15:25:37;;;;;;;6.32;1.20;;;;;;;;;;5346198;23;21079;-88
2023/07/13 15:28:24;;;;;;;3.92;1.25;;;;;;;;;;4943596;28;20052;-88
2023/07/13 15:31:11;;;;;;;1.85;1.00;;;;;;;;;;4957388;28;20055;-88
2023/07/13 15:36:28;;;;;;;3.55;1.25;;;;;;;;;;5143676;23;20051;-91
2023/07/13 15:39:20;;;;;;;2.65;1.00;;;;;;;;;;4957277;28;20129;-87
2023/07/13 15:44:39;;;;;;;5.18;1.20;;;;;;;;;;5214096;23;20063;-89
2023/07/13 15:47:20;;;;;;;5.05;1.30;;;;;;;;;;4957964;28;20042;-89
2023/07/13 15:50:08;;;;;;;2.22;1.13;;;;;;;;;;4980881;23;20048;-88
2023/07/13 15:52:52;;;;;;;5.60;1.20;;;;;;;;;;4924777;28;20040;-88
2023/07/13 15:55:40;;;;;;;1.52;1.13;;;;;;;;;;5191871;23;20061;-87
2023/07/13 15:58:34;;;;;;;2.53;1.25;;;;;;;;;;4944208;28;20095;-89
2023/07/13 16:06:41;;;;;;;2.13;1.10;;;;;;;;;;4989084;23;20043;-89
2023/07/13 16:09:26;;;;;;;2.65;1.50;;;;;;;;;;4942637;28;20103;-88
2023/07/13 16:17:49;;;;;;;4.10;1.60;;;;;;;;;;5754020;23;20031;-88
2023/07/13 16:20:43;;;;;;;2.28;1.13;;;;;;;;;;4956844;28;20077;-89
2023/07/13 16:23:49;;;;;;;2.20;1.50;;;;;;;;;;4957144;28;20043;-89
2023/07/13 16:26:39;;;;;;;3.10;1.60;;;;;;;;;;4984796;23;20032;-89
2023/07/13 16:32:21;;;;;;;3.63;2.03;;;;;;;;;;5381757;23;20046;-88
2023/07/13 16:35:04;;;;;;;7.53;3.17;;;;;;;;;;4942681;28;20035;-85
2023/07/13 16:38:25;;;;;;;3.50;1.77;;;;;;;;;;4942910;28;20109;-88
2023/07/13 16:41:07;;;;;;;5.43;2.17;;;;;;;;;;4879995;29;20070;-87
2023/07/13 16:43:50;;;;;;;6.32;1.73;;;;;;;;;;4868001;29;20050;-88
2023/07/13 16:46:34;;;;;;;2.53;1.95;;;;;;;;;;4928942;28;20059;-89
2023/07/13 16:49:51;;;;;;;4.50;2.20;;;;;;;;;;5115759;23;20065;-88
2023/07/13 16:52:35;;;;;;;3.67;1.85;;;;;;;;;;4879668;29;20037;-88
2023/07/13 16:59:05;;;;;;;7.13;2.63;;;;;;;;;;4946323;28;20046;-89
2023/07/13 17:04:32;;;;;;;5.32;2.85;;;;;;;;;;4988298;23;20055;-87
2023/07/13 17:07:17;;;;;;;6.60;3.47;;;;;;;;;;5076135;23;20056;-86
2023/07/13 17:10:03;;;;;;;6.43;3.05;;;;;;;;;;4932481;28;20108;-87
2023/07/13 17:12:44;;;;;;;5.50;3.20;;;;;;;;;;4920251;29;20029;-86
2023/07/13 17:18:07;;;;;;;9.15;3.05;;;;;;;;;;4937780;29;20074;-86
2023/07/13 17:20:48;;;;;;;7.38;3.42;;;;;;;;;;4924096;29;20063;-87
2023/07/13 17:23:51;;;;;;;7.18;3.33;;;;;;;;;;4984213;23;20067;-88
2023/07/13 17:26:32;;;;;;;5.10;2.90;;;;;;;;;;4923213;29;20051;-88
2023/07/13 17:29:13;;;;;;;7.72;3.67;;;;;;;;;;4924409;29;20067;-89
2023/07/13 17:32:13;;;;;;;8.20;3.90;;;;;;;;;;4923667;29;20048;-87
2023/07/13 17:35:14;;;;;;;8.43;3.40;;;;;;;;;;5175234;23;20055;-87
2023/07/13 17:37:56;;;;;;;4.60;2.55;;;;;;;;;;4942361;28;20047;-88
2023/07/13 17:40:43;;;;;;;6.95;2.92;;;;;;;;;;4956529;28;20051;-87
2023/07/13 17:43:31;;;;;;;5.88;2.60;;;;;;;;;;4945090;28;20028;-87
2023/07/13 17:46:12;;;;;;;5.28;2.70;;;;;;;;;;4944803;28;20032;-87
2023/07/13 17:49:34;;;;;;;7.03;2.35;;;;;;;;;;4945529;28;20081;-87
2023/07/13 17:52:18;;;;;;;7.28;2.65;;;;;;;;;;4883770;29;20073;-88
2023/07/13 17:55:02;;;;;;;4.82;2.55;;;;;;;;;;4946075;28;20036;-88
2023/07/13 17:58:03;;;;;;;4.80;2.20;;;;;;;;;;4959943;28;20070;-88
2023/07/13 18:06:09;;;;;;;4.03;2.40;;;;;;;;;;5647299;23;20036;-88
2023/07/13 18:08:56;;;;;;;7.07;2.15;;;;;;;;;;4961260;28;20059;-88
2023/07/13 18:11:38;;;;;;;4.45;2.75;;;;;;;;;;4959072;28;20031;-87
2023/07/13 18:17:03;;;;;;;5.78;2.38;;;;;;;;;;5545821;23;20047;-87
2023/07/13 18:19:45;;;;;;;6.60;2.22;;;;;;;;;;4945749;28;20051;-87
2023/07/13 18:22:54;;;;;;;4.20;2.45;;;;;;;;;;4960162;28;20056;-88
2023/07/13 18:25:37;;;;;;;4.78;2.53;;;;;;;;;;4944011;28;20137;-88
2023/07/13 18:32:07;;;;;;;4.28;2.85;;;;;;;;;;4960585;28;20035;-86
2023/07/13 18:34:54;;;;;;;10.05;3.10;;;;;;;;;;4953310;28;20419;-87
2023/07/13 18:37:38;;;;;;;8.35;2.95;;;;;;;;;;4972207;23;20111;-88
2023/07/13 18:40:38;;;;;;;11.32;3.35;;;;;;;;;;4944857;28;20079;-88
2023/07/13 18:47:06;;;;;;;13.02;4.13;;;;;;;;;;4960456;28;20088;-88
2023/07/13 18:49:55;;;;;;;8.40;2.70;;;;;;;;;;4959288;28;20039;-86
2023/07/13 18:52:35;;;;;;;9.67;3.27;;;;;;;;;;4944444;28;20499;-86
2023/07/13 18:55:19;;;;;;;5.68;2.72;;;;;;;;;;4931785;28;20479;-86
2023/07/13 19:00:36;;;;;;;8.70;3.63;;;;;;;;;;3199420;23;20095;-87
2023/07/13 19:03:21;;;;;;;4.97;3.35;;;;;;;;;;4939243;29;20185;-87
2023/07/13 19:06:23;;;;;;;8.55;3.17;;;;;;;;;;4923512;29;20032;-89
2023/07/13 19:09:08;;;;;;;6.28;2.60;;;;;;;;;;4924619;29;20028;-88
2023/07/13 19:11:48;;;;;;;3.90;2.78;;;;;;;;;;4923242;29;20162;-88
2023/07/13 19:14:30;;;;;;;6.70;2.97;;;;;;;;;;4939045;29;20052;-87
2023/07/13 19:17:12;;;;;;;10.25;2.95;;;;;;;;;;5030775;23;20067;-88
2023/07/13 19:19:54;;;;;;;4.45;2.85;;;;;;;;;;4924786;28;20039;-88
2023/07/13 19:22:52;;;;;;;6.13;3.35;;;;;;;;;;4924695;28;20040;-87
2023/07/13 19:25:35;;;;;;;8.82;3.28;;;;;;;;;;4925046;28;20028;-87
2023/07/13 19:28:29;;;;;;;5.20;3.10;;;;;;;;;;4924580;28;20035;-88
2023/07/13 19:31:18;;;;;;;5.97;3.47;;;;;;;;;;4961166;23;20047;-88
2023/07/13 19:34:00;;;;;;;5.72;3.50;;;;;;;;;;4943121;28;20062;-87
2023/07/13 19:36:41;;;;;;;6.25;3.78;;;;;;;;;;4942936;28;20055;-87
2023/07/13 19:39:28;;;;;;;6.20;4.00;;;;;;;;;;4958602;28;20043;-88
2023/07/13 19:42:53;;;;;;;4.63;3.53;;;;;;;;;;4940315;28;20058;-87
2023/07/13 19:45:29;;;;;;;7.47;3.88;;;;;;;;;;4963270;23;20052;-87